CheckWX is a tool to help pilots better visualize weather data.  It is not intended as a substitute for an official pre-flight weather briefing.

21:04:07 UTC

ENBO METAR
Bodø Airport
Bodø, Norway
Current

14 mins ago

ENBO 232050Z 23016KT 9999 FEW015 SCT030 07/05 Q1016
Observed
Feb-23 @ 20:50 UTC
Wind
  • 230° at 16 KTS
Visibility
10,000+ meters
Flight Rules
VFR
Cloud Levels
  • Few at 1,500' AGL
  • Scattered at 3,000' AGL
Temperature
C / 45°F
Dewpoint
C / 41°F
Humidity
87%
Altimeter
30" Hg
Pressure
1015.92 hPa
Previous

44 mins ago

ENBO 232020Z 21014KT 9999 FEW018 SCT030 BKN070 07/05 Q1016
Observed
Feb-23 @ 20:20 UTC
Wind
  • 210° at 14 KTS
Visibility
10,000+ meters
Flight Rules
VFR
Cloud Levels
  • Few at 1,800' AGL
  • Scattered at 3,000' AGL
  • Broken at 7,000' AGL
Temperature
C / 45°F
Dewpoint
C / 41°F
Humidity
87%
Altimeter
30" Hg
Pressure
1015.92 hPa
Previous

1 hour ago

ENBO 231950Z 22021KT 9999 FEW012 SCT020 BKN060 07/05 Q1016
Observed
Feb-23 @ 19:50 UTC
Wind
  • 220° at 21 KTS
Visibility
10,000+ meters
Flight Rules
VFR
Cloud Levels
  • Few at 1,200' AGL
  • Scattered at 2,000' AGL
  • Broken at 6,000' AGL
Temperature
C / 45°F
Dewpoint
C / 41°F
Humidity
87%
Altimeter
30" Hg
Pressure
1015.92 hPa